createdAt,value
2017-06-19T00:01:47.750Z,6.70
2017-06-19T00:04:20.511Z,7.20
2017-06-19T00:06:52.877Z,8.17
2017-06-19T00:09:25.445Z,7.10
2017-06-19T00:11:57.669Z,7.07
2017-06-19T00:14:30.152Z,7.10
2017-06-19T00:17:02.436Z,7.30
2017-06-19T00:19:35.149Z,7.60
2017-06-19T00:22:07.401Z,7.10
2017-06-19T00:24:40.069Z,6.67
2017-06-19T00:27:12.238Z,7.20
2017-06-19T00:29:44.859Z,6.97
2017-06-19T00:32:17.054Z,6.93
2017-06-19T00:44:29.357Z,6.67
2017-06-19T00:47:01.517Z,7.90
2017-06-19T00:49:34.486Z,6.57
2017-06-19T00:52:06.824Z,6.90
2017-06-19T00:54:39.184Z,7.13
2017-06-19T00:57:11.504Z,6.67
2017-06-19T00:59:43.829Z,7.17
2017-06-19T01:02:17.193Z,6.80
2017-06-19T01:14:29.462Z,6.87
2017-06-19T01:17:01.849Z,6.83
2017-06-19T01:19:34.245Z,6.80
2017-06-19T01:22:06.622Z,6.33
2017-06-19T01:24:38.913Z,6.70
2017-06-19T01:27:11.593Z,7.30
2017-06-19T01:29:44.365Z,6.80
2017-06-19T01:32:16.605Z,7.17
2017-06-19T01:34:48.925Z,6.23
2017-06-19T01:37:21.408Z,6.60
2017-06-19T01:39:53.688Z,6.27
2017-06-19T01:42:26.793Z,6.80
2017-06-19T01:44:59.524Z,6.77
2017-06-19T01:47:31.713Z,6.53
2017-06-19T01:50:04.322Z,6.20
2017-06-19T01:52:36.594Z,7.13
2017-06-19T01:55:09.167Z,6.40
2017-06-19T01:57:41.512Z,6.47
2017-06-19T02:00:14.007Z,6.43
2017-06-19T02:02:49.406Z,6.83
2017-06-19T02:05:21.803Z,6.40
2017-06-19T02:07:54.358Z,6.07
2017-06-19T02:10:26.744Z,6.40
2017-06-19T02:25:49.266Z,6.13
2017-06-19T02:28:21.757Z,6.13
2017-06-19T02:30:54.089Z,5.83
2017-06-19T02:33:26.548Z,6.07
2017-06-19T02:35:58.880Z,5.80
2017-06-19T02:38:31.090Z,6.30
2017-06-19T02:41:03.454Z,6.20
2017-06-19T02:43:35.612Z,6.00
2017-06-19T02:46:08.070Z,7.03
2017-06-19T02:48:40.602Z,5.83
2017-06-19T02:51:13.029Z,5.80
2017-06-19T02:53:45.321Z,6.40
2017-06-19T02:56:17.741Z,6.70
2017-06-19T02:58:50.178Z,6.27
2017-06-19T03:01:22.784Z,6.77
2017-06-19T03:03:58.633Z,6.60
2017-06-19T03:06:30.888Z,6.77
2017-06-19T03:09:03.389Z,5.77
2017-06-19T03:11:35.841Z,5.80
2017-06-19T03:14:08.182Z,6.07
2017-06-19T03:16:40.624Z,6.20
2017-06-19T03:19:13.269Z,6.43
2017-06-19T03:21:45.482Z,5.83
2017-06-19T03:24:18.568Z,5.47
2017-06-19T03:26:50.847Z,6.10
2017-06-19T03:29:23.372Z,5.93
2017-06-19T03:31:55.663Z,5.63
2017-06-19T03:34:28.005Z,5.90
2017-06-19T03:37:00.433Z,5.50
2017-06-19T03:39:32.700Z,5.87
2017-06-19T03:42:05.131Z,5.77
2017-06-19T03:44:37.492Z,6.03
2017-06-19T03:47:09.874Z,6.00
2017-06-19T03:59:22.101Z,6.20
2017-06-19T04:01:54.477Z,5.60
2017-06-19T04:04:27.566Z,5.60
2017-06-19T04:06:59.860Z,6.07
2017-06-19T04:09:32.569Z,5.80
2017-06-19T04:12:05.033Z,5.80
2017-06-19T04:14:37.470Z,5.80
2017-06-19T04:17:10.029Z,5.90
2017-06-19T04:19:42.812Z,5.90
2017-06-19T04:22:15.201Z,5.40
2017-06-19T04:24:48.193Z,6.03
2017-06-19T04:27:20.533Z,5.27
2017-06-19T04:29:52.913Z,5.50
2017-06-19T04:32:25.408Z,5.97
2017-06-19T04:34:57.817Z,5.00
2017-06-19T04:37:30.221Z,5.70
2017-06-19T04:40:02.784Z,5.77
2017-06-19T04:42:35.133Z,5.63
2017-06-19T04:45:07.446Z,5.60
2017-06-19T04:47:39.972Z,6.07
2017-06-19T04:50:12.440Z,6.27
2017-06-19T04:52:44.846Z,6.10
2017-06-19T04:55:17.345Z,5.67
2017-06-19T04:57:49.746Z,5.53
2017-06-19T05:00:22.093Z,5.40
2017-06-19T05:02:55.202Z,5.70
2017-06-19T05:05:27.377Z,5.03
2017-06-19T05:08:00.361Z,5.87
2017-06-19T05:10:32.718Z,5.33
2017-06-19T05:13:04.964Z,5.17
2017-06-19T05:15:37.266Z,5.83
2017-06-19T05:18:09.675Z,26.70
2017-06-19T05:20:41.918Z,29.80
2017-06-19T05:23:14.391Z,29.53
2017-06-19T05:25:46.757Z,31.40
2017-06-19T05:28:19.185Z,30.50
2017-06-19T05:30:51.395Z,31.90
2017-06-19T05:33:23.789Z,32.80
2017-06-19T05:35:56.173Z,34.20
2017-06-19T05:38:28.692Z,35.90
2017-06-19T05:41:01.059Z,36.30
2017-06-19T05:43:33.349Z,38.57
2017-06-19T05:46:05.603Z,38.20
2017-06-19T05:48:37.916Z,36.60
2017-06-19T05:51:10.382Z,38.53
2017-06-19T05:53:42.845Z,41.73
2017-06-19T05:56:15.221Z,40.60
2017-06-19T05:58:47.437Z,43.40
2017-06-19T06:01:19.941Z,41.73
2017-06-19T06:03:52.382Z,42.83
2017-06-19T06:06:24.838Z,43.63
2017-06-19T06:08:57.241Z,42.40
2017-06-19T06:11:29.513Z,44.93
2017-06-19T06:14:01.823Z,42.53
2017-06-19T06:16:34.058Z,43.20
2017-06-19T06:19:06.726Z,44.00
2017-06-19T06:21:38.978Z,42.77
2017-06-19T06:24:11.901Z,42.60
2017-06-19T06:26:38.446Z,39.97
2017-06-19T06:29:04.642Z,40.20
2017-06-19T06:31:30.837Z,40.00
2017-06-19T06:33:56.989Z,39.07
2017-06-19T06:36:23.190Z,36.60
2017-06-19T06:38:49.481Z,38.03
2017-06-19T06:41:15.658Z,37.63
2017-06-19T06:43:41.840Z,37.73
2017-06-19T06:46:07.986Z,36.20
2017-06-19T06:48:34.189Z,33.13
2017-06-19T06:51:00.494Z,36.17
2017-06-19T06:53:26.729Z,33.83
2017-06-19T06:55:52.961Z,34.10
2017-06-19T06:58:19.100Z,32.70
2017-06-19T07:00:45.241Z,33.20
2017-06-19T07:03:11.409Z,33.47
2017-06-19T07:05:37.597Z,33.80
2017-06-19T07:08:03.754Z,31.57
2017-06-19T07:10:29.945Z,30.77
2017-06-19T07:12:56.097Z,30.63
2017-06-19T07:15:22.243Z,28.63
2017-06-19T07:27:28.570Z,26.90
2017-06-19T07:29:54.902Z,26.47
2017-06-19T07:32:21.051Z,25.03
2017-06-19T07:34:47.363Z,24.63
2017-06-19T07:37:13.534Z,21.03
2017-06-19T07:39:39.721Z,22.77
2017-06-19T07:42:06.101Z,21.43
2017-06-19T07:44:32.354Z,20.70
2017-06-19T07:46:58.522Z,19.20
2017-06-19T07:49:24.845Z,20.87
2017-06-19T07:51:51.018Z,19.63
2017-06-19T07:54:17.202Z,18.90
2017-06-19T07:56:43.537Z,17.13
2017-06-19T07:59:09.717Z,16.87
2017-06-19T08:01:35.963Z,15.30
2017-06-19T08:04:05.634Z,14.20
2017-06-19T08:06:35.954Z,16.03
2017-06-19T08:09:03.678Z,15.60
2017-06-19T08:11:30.033Z,14.60
2017-06-19T08:13:58.021Z,13.63
2017-06-19T08:16:24.193Z,14.80
2017-06-19T08:18:51.154Z,14.10
2017-06-19T08:21:17.332Z,12.60
2017-06-19T08:23:44.477Z,12.00
2017-06-19T08:26:10.619Z,10.73
2017-06-19T08:28:36.806Z,10.33
2017-06-19T08:31:03.062Z,10.33
2017-06-19T08:33:29.395Z,9.23
2017-06-19T08:35:55.560Z,9.40
2017-06-19T08:38:21.754Z,8.77
2017-06-19T08:50:28.024Z,8.70
2017-06-19T08:52:54.296Z,9.50
2017-06-19T08:55:20.629Z,8.30
2017-06-19T08:57:46.826Z,8.23
2017-06-19T09:00:13.913Z,7.97
2017-06-19T09:02:40.595Z,8.10
2017-06-19T09:05:07.026Z,8.67
2017-06-19T09:07:33.574Z,7.53
2017-06-19T09:10:01.898Z,7.17
2017-06-19T09:12:28.518Z,8.40
2017-06-19T09:14:54.665Z,7.37
2017-06-19T09:17:20.998Z,7.50
2017-06-19T09:19:47.178Z,7.73
2017-06-19T09:22:13.336Z,7.07
2017-06-19T09:24:39.667Z,7.70
2017-06-19T09:27:05.825Z,7.33
2017-06-19T09:29:32.101Z,7.23
2017-06-19T09:31:58.487Z,7.87
2017-06-19T09:44:05.489Z,6.60
2017-06-19T09:56:16.734Z,6.47
2017-06-19T09:58:42.894Z,6.90
2017-06-19T10:01:09.245Z,6.50
2017-06-19T10:03:35.462Z,6.50
2017-06-19T10:06:01.630Z,6.37
2017-06-19T10:08:27.899Z,6.00
2017-06-19T10:10:56.733Z,6.10
2017-06-19T10:13:23.514Z,6.33
2017-06-19T10:15:50.066Z,6.60
2017-06-19T10:18:16.580Z,6.43
2017-06-19T10:20:43.186Z,6.23
2017-06-19T10:23:09.673Z,6.03
2017-06-19T10:25:36.041Z,6.70
2017-06-19T10:28:02.245Z,6.67
2017-06-19T10:30:28.389Z,6.47
2017-06-19T10:32:54.722Z,5.97
2017-06-19T10:35:20.914Z,5.47
2017-06-19T10:37:47.161Z,6.17
2017-06-19T10:40:13.594Z,6.40
2017-06-19T10:42:39.741Z,5.93
2017-06-19T10:45:06.028Z,6.00
2017-06-19T10:47:32.562Z,5.83
2017-06-19T10:49:58.729Z,5.57
2017-06-19T10:52:24.922Z,6.00
2017-06-19T10:54:51.287Z,5.67
2017-06-19T10:57:17.439Z,6.03
2017-06-19T10:59:43.625Z,5.27
2017-06-19T11:02:09.942Z,6.27
2017-06-19T11:04:36.158Z,5.30
2017-06-19T11:07:02.306Z,5.60
2017-06-19T11:09:28.694Z,5.10
2017-06-19T11:11:55.086Z,5.77
2017-06-19T11:14:21.281Z,5.80
2017-06-19T11:16:48.021Z,5.50
2017-06-19T11:19:14.210Z,5.80
2017-06-19T11:21:40.375Z,5.87
2017-06-19T11:24:06.657Z,5.10
2017-06-19T11:26:32.801Z,5.07
2017-06-19T11:28:59.047Z,5.53
2017-06-19T11:31:25.353Z,5.20
2017-06-19T11:33:51.571Z,4.97
2017-06-19T11:36:17.755Z,5.50
2017-06-19T11:38:44.098Z,5.13
2017-06-19T11:41:10.254Z,5.23
2017-06-19T11:43:36.426Z,5.73
2017-06-19T11:46:02.744Z,5.20
2017-06-19T11:48:28.894Z,5.20
2017-06-19T11:50:55.157Z,5.70
2017-06-19T11:53:21.433Z,5.50
2017-06-19T11:55:47.596Z,5.00
2017-06-19T11:58:13.763Z,4.87
2017-06-19T12:00:39.974Z,5.20
2017-06-19T12:03:06.166Z,4.83
2017-06-19T12:05:32.624Z,4.63
2017-06-19T12:07:58.773Z,4.63
2017-06-19T12:10:24.926Z,5.03
2017-06-19T12:12:53.402Z,4.90
2017-06-19T12:15:19.550Z,4.70
2017-06-19T12:27:25.748Z,5.00
2017-06-19T12:29:51.907Z,4.70
2017-06-19T12:32:18.205Z,4.83
2017-06-19T12:34:44.395Z,4.30
2017-06-19T12:37:10.534Z,5.17
2017-06-19T12:39:36.781Z,4.47
2017-06-19T12:42:02.929Z,4.30
2017-06-19T12:44:29.400Z,4.80
2017-06-19T12:46:55.557Z,4.77
2017-06-19T12:49:21.744Z,4.33
2017-06-19T12:51:47.959Z,4.60
2017-06-19T12:54:14.126Z,4.77
2017-06-19T12:56:40.469Z,4.07
2017-06-19T12:59:06.626Z,4.93
2017-06-19T13:01:32.847Z,4.83
2017-06-19T13:03:59.001Z,4.47
2017-06-19T13:16:05.364Z,4.80
2017-06-19T13:18:31.521Z,4.70
2017-06-19T13:20:57.767Z,4.33
2017-06-19T13:23:23.928Z,4.40
2017-06-19T13:25:50.183Z,3.83
2017-06-19T13:28:16.510Z,4.60
2017-06-19T13:30:42.736Z,4.03
2017-06-19T13:33:08.947Z,4.80
2017-06-19T13:35:35.158Z,4.20
2017-06-19T13:38:01.363Z,4.27
2017-06-19T13:40:27.734Z,4.20
2017-06-19T13:42:53.906Z,3.90
2017-06-19T13:45:20.085Z,3.90
2017-06-19T13:47:46.337Z,4.10
2017-06-19T13:50:12.492Z,4.10
2017-06-19T13:52:38.841Z,4.23
2017-06-19T13:55:04.995Z,4.27
2017-06-19T14:07:11.221Z,3.57
2017-06-19T14:09:37.417Z,4.23
2017-06-19T14:12:03.780Z,3.90
2017-06-19T14:14:31.949Z,3.87
2017-06-19T14:16:58.111Z,4.00
2017-06-19T14:19:24.321Z,3.70
2017-06-19T14:21:50.522Z,4.23
2017-06-19T14:24:17.109Z,3.90
2017-06-19T14:26:43.341Z,3.37
2017-06-19T14:29:09.534Z,3.57
2017-06-19T14:31:35.706Z,3.97
2017-06-19T14:34:01.915Z,4.03
2017-06-19T14:36:28.235Z,4.10
2017-06-19T14:38:54.462Z,3.80
2017-06-19T14:41:20.625Z,4.00
2017-06-19T14:43:46.818Z,3.53
2017-06-19T14:46:13.004Z,3.70
2017-06-19T14:48:39.339Z,3.73
2017-06-19T14:51:05.593Z,4.07
2017-06-19T14:53:31.833Z,3.80
2017-06-19T14:55:58.063Z,3.70
2017-06-19T14:58:24.264Z,3.70
2017-06-19T15:00:50.661Z,3.50
2017-06-19T15:03:16.844Z,3.33
2017-06-19T15:05:43.026Z,3.43
2017-06-19T15:08:09.186Z,3.70
2017-06-19T15:10:35.386Z,3.57
2017-06-19T15:13:01.705Z,3.93
2017-06-19T15:15:29.092Z,3.60
2017-06-19T15:17:55.299Z,3.80
2017-06-19T15:30:01.514Z,3.57
2017-06-19T15:32:27.836Z,3.50
2017-06-19T15:34:54.054Z,3.70
2017-06-19T15:37:20.224Z,3.80
2017-06-19T15:39:46.489Z,3.70
2017-06-19T15:42:12.660Z,3.50
2017-06-19T15:44:38.974Z,3.80
2017-06-19T15:47:05.133Z,3.90
2017-06-19T15:49:31.377Z,3.73
2017-06-19T15:51:57.582Z,3.97
2017-06-19T15:54:23.742Z,3.97
2017-06-19T15:56:50.123Z,3.33
2017-06-19T15:59:16.326Z,3.70
2017-06-19T16:01:42.537Z,3.77
2017-06-19T16:04:08.719Z,3.80
2017-06-19T16:06:34.927Z,3.80
2017-06-19T16:09:01.246Z,3.80
2017-06-19T16:11:27.484Z,4.00
2017-06-19T16:13:53.675Z,3.63
2017-06-19T16:16:21.871Z,3.20
2017-06-19T16:18:48.112Z,3.80
2017-06-19T16:21:14.426Z,4.00
2017-06-19T16:23:40.652Z,3.73
2017-06-19T16:26:07.732Z,4.30
2017-06-19T16:28:34.078Z,3.50
2017-06-19T16:31:00.452Z,4.03
2017-06-19T16:33:26.821Z,4.00
2017-06-19T16:35:53.045Z,4.10
2017-06-19T16:38:19.221Z,3.50
2017-06-19T16:40:45.408Z,3.50
2017-06-19T16:43:11.614Z,4.10
2017-06-19T16:45:37.934Z,4.13
2017-06-19T16:48:04.169Z,3.80
2017-06-19T16:50:30.398Z,3.63
2017-06-19T16:52:56.642Z,3.70
2017-06-19T16:55:22.819Z,4.10
2017-06-19T16:57:49.169Z,3.20
2017-06-19T17:00:15.386Z,3.80
2017-06-19T17:02:41.555Z,3.57
2017-06-19T17:05:07.713Z,3.30
2017-06-19T17:07:33.886Z,3.97
2017-06-19T17:10:00.212Z,3.63
2017-06-19T17:12:26.380Z,3.60
2017-06-19T17:14:52.575Z,3.70
2017-06-19T17:17:19.992Z,3.60
2017-06-19T17:19:46.220Z,3.67
2017-06-19T17:22:12.577Z,3.90
2017-06-19T17:24:38.758Z,3.63
2017-06-19T17:27:04.974Z,3.90
2017-06-19T17:29:31.162Z,3.53
2017-06-19T17:31:57.348Z,3.43
2017-06-19T17:34:23.683Z,3.70
2017-06-19T17:36:49.873Z,3.93
2017-06-19T17:39:16.068Z,3.57
2017-06-19T17:41:42.332Z,3.43
2017-06-19T17:44:08.533Z,3.90
2017-06-19T17:46:36.681Z,3.87
2017-06-19T17:49:02.867Z,3.70
2017-06-19T17:51:29.219Z,3.90
2017-06-19T17:53:55.414Z,3.87
2017-06-19T17:56:21.597Z,3.70
2017-06-19T17:58:47.814Z,3.93
2017-06-19T18:01:14.051Z,3.60
2017-06-19T18:03:40.399Z,3.80
2017-06-19T18:06:06.642Z,3.90
2017-06-19T18:08:32.888Z,4.03
2017-06-19T18:10:59.108Z,3.93
2017-06-19T18:13:25.315Z,4.10
2017-06-19T18:15:51.571Z,3.53
2017-06-19T18:18:17.782Z,3.83
2017-06-19T18:20:44.142Z,4.00
2017-06-19T18:23:10.324Z,3.90
2017-06-19T18:25:36.552Z,4.27
2017-06-19T18:28:02.813Z,4.37
2017-06-19T18:30:29.019Z,3.80
2017-06-19T18:32:55.333Z,4.30
2017-06-19T18:35:21.534Z,4.00
2017-06-19T18:37:47.773Z,4.30
2017-06-19T18:40:13.961Z,4.47
2017-06-19T18:42:40.202Z,3.70
2017-06-19T18:45:07.621Z,4.27
2017-06-19T18:47:33.902Z,4.30
2017-06-19T18:50:00.083Z,4.20
2017-06-19T18:52:26.321Z,4.20
2017-06-19T18:54:52.503Z,5.60
2017-06-19T18:57:18.677Z,5.93
2017-06-19T18:59:44.898Z,6.20
2017-06-19T19:02:11.249Z,6.00
2017-06-19T19:04:37.914Z,6.40
2017-06-19T19:07:04.774Z,6.23
2017-06-19T19:09:31.003Z,7.10
2017-06-19T19:21:44.094Z,7.23
2017-06-19T19:24:10.325Z,7.17
2017-06-19T19:26:36.823Z,7.43
2017-06-19T19:29:03.069Z,6.63
2017-06-19T19:31:29.529Z,7.33
2017-06-19T19:33:55.942Z,6.73
2017-06-19T19:36:22.128Z,8.60
2017-06-19T19:38:48.366Z,8.90
2017-06-19T19:41:14.635Z,7.90
2017-06-19T19:43:41.047Z,8.50
2017-06-19T19:46:07.257Z,8.90
2017-06-19T19:48:33.747Z,8.90
2017-06-19T19:51:00.139Z,9.23
2017-06-19T19:53:26.350Z,7.30
2017-06-19T19:55:53.021Z,9.90
2017-06-19T19:58:19.278Z,9.20
2017-06-19T20:00:45.458Z,9.70
2017-06-19T20:03:11.683Z,10.50
2017-06-19T20:05:37.919Z,9.70
2017-06-19T20:08:04.359Z,9.70
2017-06-19T20:10:30.647Z,9.60
2017-06-19T20:12:56.886Z,10.53
2017-06-19T20:15:23.419Z,9.90
2017-06-19T20:17:49.610Z,11.43
2017-06-19T20:20:15.841Z,19.90
2017-06-19T20:22:42.384Z,21.00
2017-06-19T20:25:08.869Z,17.80
2017-06-19T20:27:35.054Z,20.00
2017-06-19T20:30:01.392Z,21.73
2017-06-19T20:32:27.751Z,24.87
2017-06-19T20:34:54.023Z,24.97
2017-06-19T20:37:20.765Z,22.90
2017-06-19T20:39:47.025Z,24.23
2017-06-19T20:42:13.205Z,23.33
2017-06-19T20:44:39.361Z,23.57
2017-06-19T20:47:05.533Z,20.70
2017-06-19T20:49:31.904Z,16.10
2017-06-19T20:51:58.081Z,14.57
2017-06-19T20:54:24.314Z,12.70
2017-06-19T20:56:50.521Z,12.40
2017-06-19T20:59:16.682Z,12.60
2017-06-19T21:01:43.469Z,12.67
2017-06-19T21:04:09.637Z,12.17
2017-06-19T21:06:35.873Z,11.90
2017-06-19T21:09:02.132Z,11.30
2017-06-19T21:11:28.289Z,12.07
2017-06-19T21:13:54.577Z,13.53
2017-06-19T21:16:20.766Z,11.67
2017-06-19T21:18:46.966Z,12.23
2017-06-19T21:21:14.189Z,12.60
2017-06-19T21:23:40.338Z,11.90
2017-06-19T21:26:06.694Z,12.60
2017-06-19T21:28:32.879Z,12.00
2017-06-19T21:30:59.069Z,12.03
2017-06-19T21:33:25.222Z,12.17
2017-06-19T21:35:51.373Z,13.17
2017-06-19T21:38:17.711Z,13.10
2017-06-19T21:40:43.896Z,11.57
2017-06-19T21:43:10.065Z,12.30
2017-06-19T21:45:36.237Z,13.57
2017-06-19T21:48:02.441Z,12.03
2017-06-19T21:50:28.730Z,10.90
2017-06-19T21:52:54.906Z,9.53
2017-06-19T21:55:21.084Z,9.73
2017-06-19T21:57:47.300Z,8.40
2017-06-19T22:00:13.470Z,8.70
2017-06-19T22:02:39.797Z,8.93
2017-06-19T22:05:06.021Z,7.63
2017-06-19T22:07:32.202Z,8.80
2017-06-19T22:09:58.490Z,8.37
2017-06-19T22:12:24.645Z,7.90
2017-06-19T22:14:50.930Z,8.13
2017-06-19T22:17:17.127Z,8.37
2017-06-19T22:19:43.345Z,6.90
2017-06-19T22:22:16.182Z,7.90
2017-06-19T22:24:42.343Z,7.83
2017-06-19T22:27:08.672Z,8.00
2017-06-19T22:29:34.829Z,7.43
2017-06-19T22:32:01.084Z,7.43
2017-06-19T22:34:27.291Z,8.03
2017-06-19T22:36:53.438Z,7.97
2017-06-19T22:39:19.757Z,7.63
2017-06-19T22:41:45.965Z,7.53
2017-06-19T22:44:12.157Z,7.37
2017-06-19T22:46:38.318Z,7.50
2017-06-19T22:49:04.461Z,6.90
2017-06-19T22:51:30.813Z,7.30
2017-06-19T22:53:57.012Z,7.27
2017-06-19T22:56:23.202Z,7.00
2017-06-19T22:58:49.357Z,7.00
2017-06-19T23:01:15.542Z,6.87
2017-06-19T23:03:41.865Z,6.70
2017-06-19T23:06:08.049Z,7.27
2017-06-19T23:08:34.228Z,6.77
2017-06-19T23:11:00.379Z,7.37
2017-06-19T23:13:26.569Z,6.97
2017-06-19T23:15:52.844Z,6.47
2017-06-19T23:18:19.098Z,7.07
2017-06-19T23:20:45.394Z,6.97
2017-06-19T23:23:12.681Z,6.67
2017-06-19T23:25:38.897Z,6.90
2017-06-19T23:28:05.238Z,6.53
2017-06-19T23:30:31.393Z,6.17
2017-06-19T23:32:57.582Z,6.30
2017-06-19T23:35:23.737Z,7.20
2017-06-19T23:37:49.897Z,6.23
2017-06-19T23:40:16.217Z,6.17
2017-06-19T23:42:42.358Z,5.60
2017-06-19T23:45:08.514Z,6.53
2017-06-19T23:47:34.713Z,6.37
2017-06-19T23:50:00.861Z,6.20
2017-06-19T23:52:27.270Z,5.97
2017-06-19T23:54:53.465Z,5.83
2017-06-19T23:57:19.619Z,6.67
2017-06-19T23:59:45.782Z,6.30
